Time;durP1;ratioP1;P1;durP2;ratioP2;P2;SDS_P1;SDS_P2;PMS_P1;PMS_P2;Temp;Humidity;BMP_temperature;BMP_pressure;BME280_temperature;BME280_humidity;BME280_pressure;Samples;Min_cycle;Max_cycle;Signal;HPM_P1;HPM_P2
2021/05/06 00:01:32;;;;;;;3.90;2.30;;;7.80;90.20;;;;;;4976429;28;20545;-78
2021/05/06 00:09:52;;;;;;;2.78;2.58;;;7.80;91.00;;;;;;4975342;28;20195;-78
2021/05/06 00:33:59;;;;;;;3.67;3.03;;;7.50;92.50;;;;;;4957298;28;20176;-78
2021/05/06 00:36:25;;;;;;;5.88;3.17;;;7.50;92.60;;;;;;4974142;28;20174;-78
2021/05/06 00:38:57;;;;;;;4.33;3.83;;;7.50;92.70;;;;;;4974452;28;20208;-79
2021/05/06 00:57:50;;;;;;;6.70;3.00;;;7.30;94.10;;;;;;4973763;28;20203;-78
2021/05/06 01:00:37;;;;;;;2.60;2.40;;;7.30;94.40;;;;;;4973942;28;20170;-78
2021/05/06 01:05:42;;;;;;;3.92;2.35;;;7.20;94.70;;;;;;4973181;28;20176;-79
2021/05/06 01:13:03;;;;;;;3.10;2.25;;;7.20;95.10;;;;;;4956466;28;20239;-79
2021/05/06 01:15:30;;;;;;;3.20;2.40;;;7.20;95.40;;;;;;4956554;28;20242;-79
2021/05/06 01:17:57;;;;;;;6.18;2.85;;;7.20;95.70;;;;;;4973261;28;20208;-78
2021/05/06 01:20:22;;;;;;;3.73;2.30;;;7.20;95.80;;;;;;4973654;28;20168;-79
2021/05/06 01:22:48;;;;;;;4.40;2.80;;;7.10;95.80;;;;;;4973795;28;20563;-79
2021/05/06 01:25:15;;;;;;;4.10;2.67;;;7.10;96.10;;;;;;4972367;28;20569;-79
2021/05/06 01:27:46;;;;;;;3.92;2.85;;;7.10;96.20;;;;;;4955700;28;20261;-79
2021/05/06 01:30:34;;;;;;;2.40;2.20;;;7.10;96.40;;;;;;4956699;28;20172;-79
2021/05/06 01:33:12;;;;;;;3.08;2.45;;;7.10;96.60;;;;;;4961742;28;20172;-78
2021/05/06 01:35:45;;;;;;;3.88;2.33;;;7.10;96.90;;;;;;4973560;28;20493;-78
2021/05/06 02:00:12;;;;;;;1.80;1.17;;;7.20;97.60;;;;;;4947942;28;20203;-78
2021/05/06 02:02:30;;;;;;;1.90;1.02;;;7.20;97.70;;;;;;4969794;28;20190;-78
2021/05/06 02:04:56;;;;;;;3.17;1.50;;;7.20;97.90;;;;;;4972005;28;20636;-78
2021/05/06 02:07:26;;;;;;;2.28;1.50;;;7.20;98.00;;;;;;4955112;28;20250;-78
2021/05/06 02:09:57;;;;;;;2.67;1.30;;;7.20;98.40;;;;;;4944187;28;20232;-78
2021/05/06 02:12:24;;;;;;;2.30;1.40;;;7.20;98.30;;;;;;4971752;28;20179;-78
2021/05/06 02:14:54;;;;;;;2.80;1.10;;;7.20;98.30;;;;;;4972856;28;20222;-78
2021/05/06 02:17:20;;;;;;;3.05;1.20;;;7.20;98.40;;;;;;4972223;28;20625;-78
2021/05/06 02:19:48;;;;;;;1.77;1.10;;;7.20;98.40;;;;;;4971274;28;20598;-78
2021/05/06 02:22:17;;;;;;;4.10;1.30;;;7.20;98.50;;;;;;4955584;28;20164;-78
2021/05/06 02:24:44;;;;;;;1.65;1.13;;;7.20;98.70;;;;;;4955465;28;20168;-79
2021/05/06 02:27:11;;;;;;;2.90;1.45;;;7.20;98.70;;;;;;4972271;28;20178;-79
2021/05/06 02:29:36;;;;;;;1.60;0.90;;;7.30;98.80;;;;;;4971483;28;20187;-79
2021/05/06 02:32:03;;;;;;;4.80;1.50;;;7.30;98.80;;;;;;4955539;28;20702;-78
2021/05/06 02:34:29;;;;;;;1.50;1.10;;;7.30;98.90;;;;;;4971413;28;20571;-79
2021/05/06 02:36:54;;;;;;;2.90;1.30;;;7.30;98.90;;;;;;4971073;28;20505;-78
2021/05/06 02:39:20;;;;;;;2.47;0.80;;;7.30;99.30;;;;;;4972470;28;20163;-79
2021/05/06 02:41:46;;;;;;;2.10;1.00;;;7.40;99.10;;;;;;4955381;28;20254;-79
2021/05/06 02:44:12;;;;;;;1.80;1.13;;;7.40;99.40;;;;;;4972720;28;20578;-79
2021/05/06 02:46:38;;;;;;;3.40;1.33;;;7.40;99.20;;;;;;4942621;28;20233;-78
2021/05/06 02:49:03;;;;;;;4.03;1.60;;;7.40;99.20;;;;;;4955203;28;20191;-78
2021/05/06 02:51:34;;;;;;;1.93;1.30;;;7.40;99.40;;;;;;4955398;28;20566;-79
2021/05/06 02:54:00;;;;;;;2.92;1.63;;;7.50;99.40;;;;;;4971370;28;20590;-78
2021/05/06 02:57:12;;;;;;;1.85;1.33;;;7.50;99.60;;;;;;4954815;28;20266;-78
2021/05/06 02:59:34;;;;;;;2.47;1.38;;;7.60;99.50;;;;;;4966842;28;20215;-79
2021/05/06 03:04:46;;;;;;;2.20;1.73;;;7.60;99.50;;;;;;4972463;28;20191;-79
2021/05/06 03:07:15;;;;;;;2.85;1.65;;;7.70;99.50;;;;;;4972034;28;20301;-79
2021/05/06 03:22:47;;;;;;;2.70;1.50;;;7.90;99.70;;;;;;4977012;28;20164;-79
2021/05/06 03:25:19;;;;;;;2.05;1.55;;;7.90;99.50;;;;;;4955302;28;20546;-79
2021/05/06 04:18:52;;;;;;;3.00;1.05;;;8.20;99.90;;;;;;4949393;29;20291;-78
2021/05/06 04:37:35;;;;;;;2.30;0.90;;;8.60;99.90;;;;;;4937521;29;20228;-74
2021/05/06 04:40:08;;;;;;;3.25;1.10;;;8.70;99.90;;;;;;4961917;28;20180;-75
2021/05/06 04:53:29;;;;;;;4.22;1.05;;;8.90;99.90;;;;;;4975279;28;20187;-75
2021/05/06 04:56:06;;;;;;;2.58;1.05;;;9.00;99.90;;;;;;4974752;28;20226;-75
2021/05/06 05:06:36;;;;;;;1.85;0.90;;;9.40;99.90;;;;;;4974260;28;20171;-74
2021/05/06 05:11:50;;;;;;;3.05;0.98;;;9.50;99.90;;;;;;4956804;28;20527;-74
2021/05/06 05:25:05;;;;;;;2.08;1.08;;;10.10;99.90;;;;;;4977385;28;20175;-73
2021/05/06 05:27:31;;;;;;;3.58;1.10;;;10.20;99.90;;;;;;4958800;28;20559;-73
2021/05/06 05:29:57;;;;;;;2.53;1.40;;;10.30;99.90;;;;;;4982878;23;20230;-78
2021/05/06 05:32:23;;;;;;;5.40;1.57;;;10.40;99.90;;;;;;4950750;28;20178;-77
2021/05/06 05:37:21;;;;;;;2.00;1.30;;;10.50;99.80;;;;;;4975045;28;20191;-77
2021/05/06 05:48:41;;;;;;;2.88;1.80;;;10.70;99.90;;;;;;4992334;28;20272;-78
2021/05/06 05:56:15;;;;;;;3.97;1.58;;;11.30;99.60;;;;;;4975412;28;20210;-78
2021/05/06 05:58:40;;;;;;;3.30;2.13;;;11.40;99.30;;;;;;4967150;28;20269;-78
2021/05/06 06:01:06;;;;;;;4.43;1.70;;;11.40;99.00;;;;;;4978029;28;20168;-79
2021/05/06 06:03:32;;;;;;;7.33;2.40;;;11.40;98.70;;;;;;4956754;28;20163;-79
2021/05/06 06:05:59;;;;;;;3.77;2.00;;;11.50;98.60;;;;;;4956265;28;20571;-78
2021/05/06 06:08:26;;;;;;;3.10;2.15;;;11.50;98.50;;;;;;4972429;28;20207;-79
2021/05/06 06:10:52;;;;;;;4.35;2.20;;;11.50;98.40;;;;;;4973175;28;20266;-78
2021/05/06 06:13:18;;;;;;;3.15;2.05;;;11.60;98.30;;;;;;4973031;28;20666;-78
2021/05/06 06:15:59;;;;;;;3.20;2.05;;;11.60;98.30;;;;;;4939980;28;20279;-78
2021/05/06 06:18:40;;;;;;;5.28;2.30;;;11.60;98.20;;;;;;4972304;28;20195;-78
2021/05/06 06:21:23;;;;;;;6.75;2.45;;;11.70;98.10;;;;;;4972982;28;20179;-78
2021/05/06 06:23:50;;;;;;;3.90;2.63;;;11.80;98.20;;;;;;4973152;28;20179;-79
2021/05/06 06:26:16;;;;;;;6.05;2.10;;;12.10;99.10;;;;;;4972638;28;20176;-79
2021/05/06 06:28:44;;;;;;;3.20;2.30;;;12.50;99.40;;;;;;4972517;28;20221;-80
2021/05/06 06:31:21;;;;;;;3.58;1.90;;;13.10;99.80;;;;;;4972718;28;20586;-79
2021/05/06 06:33:48;;;;;;;3.08;1.70;;;13.70;99.80;;;;;;4955201;28;20247;-79
2021/05/06 06:36:14;;;;;;;3.40;2.03;;;14.30;99.30;;;;;;4939348;28;20608;-78
2021/05/06 06:38:39;;;;;;;3.20;1.97;;;14.80;98.60;;;;;;4954983;28;21017;-78
2021/05/06 06:41:08;;;;;;;2.00;1.60;;;15.30;98.20;;;;;;4972686;28;20674;-78
2021/05/06 06:43:38;;;;;;;3.73;1.50;;;15.90;98.00;;;;;;4972855;28;20187;-78
2021/05/06 06:46:05;;;;;;;2.67;1.50;;;16.50;97.60;;;;;;4972685;28;20570;-78
2021/05/06 06:48:31;;;;;;;2.90;1.77;;;17.00;97.00;;;;;;4972443;28;20575;-78
2021/05/06 06:50:57;;;;;;;2.43;1.80;;;17.70;97.10;;;;;;4973482;28;20629;-79
2021/05/06 06:53:23;;;;;;;2.43;1.00;;;18.40;96.30;;;;;;4973175;28;20568;-78
2021/05/06 06:55:49;;;;;;;4.67;1.70;;;18.90;94.90;;;;;;4955516;28;20168;-75
2021/05/06 06:58:16;;;;;;;3.70;1.40;;;19.50;94.20;;;;;;4972338;28;20254;-77
2021/05/06 07:00:44;;;;;;;4.33;1.40;;;20.00;93.50;;;;;;4955673;28;20607;-77
2021/05/06 07:03:10;;;;;;;2.27;1.80;;;20.60;92.40;;;;;;4974456;28;20570;-77
2021/05/06 07:05:36;;;;;;;3.70;1.20;;;21.00;91.90;;;;;;4958902;28;20563;-77
2021/05/06 07:08:16;;;;;;;2.60;1.00;;;21.50;91.00;;;;;;4980580;28;20583;-77
2021/05/06 07:10:45;;;;;;;2.50;1.00;;;21.80;87.80;;;;;;4943077;28;20613;-77
2021/05/06 07:13:11;;;;;;;2.10;1.23;;;21.80;86.10;;;;;;4960051;28;20649;-77
2021/05/06 07:15:38;;;;;;;4.63;1.53;;;21.60;83.70;;;;;;4970174;28;20578;-77
2021/05/06 07:18:07;;;;;;;1.63;1.00;;;21.40;81.10;;;;;;4978275;28;20637;-77
2021/05/06 07:20:33;;;;;;;3.53;1.10;;;21.30;81.30;;;;;;4979115;28;20593;-76
2021/05/06 07:22:58;;;;;;;2.00;1.03;;;21.20;81.00;;;;;;4995429;28;20573;-77
2021/05/06 07:25:24;;;;;;;1.97;1.10;;;21.10;79.60;;;;;;4995585;28;20968;-76
2021/05/06 07:27:50;;;;;;;2.77;1.00;;;21.00;79.10;;;;;;4977352;28;20171;-77
2021/05/06 07:30:16;;;;;;;2.77;0.80;;;21.20;79.40;;;;;;4977419;28;20290;-77
2021/05/06 07:32:44;;;;;;;2.90;1.00;;;21.30;78.90;;;;;;4977699;28;20178;-77
2021/05/06 07:35:10;;;;;;;4.97;1.30;;;21.50;78.20;;;;;;4978272;28;20602;-76
2021/05/06 07:37:36;;;;;;;1.20;0.80;;;21.50;76.80;;;;;;4977582;28;21185;-77
2021/05/06 07:40:03;;;;;;;2.07;0.90;;;21.60;77.20;;;;;;4996048;28;20652;-77
2021/05/06 07:42:28;;;;;;;2.13;0.90;;;22.00;77.80;;;;;;4978201;28;20928;-78
2021/05/06 07:44:54;;;;;;;2.57;1.33;;;22.10;76.20;;;;;;4999212;28;20562;-78
2021/05/06 07:47:20;;;;;;;3.43;1.10;;;22.20;75.00;;;;;;4995397;28;20573;-77
2021/05/06 07:49:49;;;;;;;3.47;1.10;;;22.10;73.00;;;;;;4994633;28;20187;-77
2021/05/06 07:52:18;;;;;;;1.37;0.70;;;22.00;72.10;;;;;;4994495;28;20592;-77
2021/05/06 07:54:44;;;;;;;2.10;0.80;;;21.90;71.10;;;;;;4995025;28;20585;-78
2021/05/06 07:57:10;;;;;;;2.47;1.20;;;22.00;72.30;;;;;;4968659;28;20603;-76
2021/05/06 07:59:36;;;;;;;1.50;0.70;;;22.60;74.20;;;;;;4981513;28;20653;-76
2021/05/06 08:02:03;;;;;;;2.10;0.77;;;22.90;72.70;;;;;;4975262;28;20603;-76
2021/05/06 08:04:29;;;;;;;3.30;1.10;;;23.10;71.20;;;;;;4976795;28;20595;-77
2021/05/06 08:06:55;;;;;;;1.37;0.73;;;23.00;68.20;;;;;;4994480;28;20590;-77
2021/05/06 08:09:21;;;;;;;1.90;1.00;;;22.70;66.30;;;;;;4977157;28;20697;-77
2021/05/06 08:11:46;;;;;;;2.13;0.80;;;22.30;64.90;;;;;;4994101;28;20166;-77
2021/05/06 08:14:12;;;;;;;3.00;0.93;;;21.90;63.40;;;;;;4993780;28;20175;-77
2021/05/06 08:16:38;;;;;;;2.30;0.83;;;21.60;64.50;;;;;;4993703;28;20959;-76
2021/05/06 08:19:04;;;;;;;2.57;1.00;;;21.60;64.60;;;;;;4994021;28;20213;-77
2021/05/06 08:21:31;;;;;;;1.87;0.90;;;21.40;63.40;;;;;;4998620;28;20185;-77
2021/05/06 08:23:57;;;;;;;3.20;0.80;;;20.90;62.60;;;;;;4993892;28;20750;-77
2021/05/06 08:26:25;;;;;;;1.50;0.90;;;20.50;61.70;;;;;;4960232;28;20763;-76
2021/05/06 08:28:53;;;;;;;2.40;0.90;;;20.10;61.40;;;;;;4959753;28;20693;-74
2021/05/06 08:31:20;;;;;;;4.00;1.17;;;19.60;61.30;;;;;;4982388;28;20587;-74
2021/05/06 08:33:46;;;;;;;2.30;0.80;;;19.40;62.70;;;;;;4974158;28;20674;-73
2021/05/06 08:36:12;;;;;;;2.90;1.00;;;19.50;64.60;;;;;;4973169;28;20795;-74
2021/05/06 08:38:38;;;;;;;2.60;0.83;;;19.30;59.60;;;;;;4956070;28;20680;-73
2021/05/06 08:41:04;;;;;;;2.00;0.90;;;19.30;61.90;;;;;;4973357;28;20623;-74
2021/05/06 08:43:34;;;;;;;3.60;1.40;;;19.70;64.50;;;;;;4977680;28;20601;-74
2021/05/06 08:46:01;;;;;;;1.50;0.93;;;19.90;64.10;;;;;;4977742;28;20606;-73
2021/05/06 08:48:27;;;;;;;3.40;1.00;;;19.90;63.20;;;;;;4973633;28;20958;-73
2021/05/06 08:50:54;;;;;;;5.17;0.97;;;19.80;61.50;;;;;;4972735;28;20622;-73
2021/05/06 08:53:21;;;;;;;5.10;1.27;;;19.60;60.70;;;;;;4956399;28;20940;-76
2021/05/06 08:55:48;;;;;;;1.73;0.70;;;19.70;62.60;;;;;;4972698;28;20920;-75
2021/05/06 08:58:14;;;;;;;3.93;0.70;;;20.20;64.50;;;;;;4960584;28;20686;-76
2021/05/06 09:00:40;;;;;;;3.63;0.77;;;20.90;65.60;;;;;;4975563;28;20622;-75
2021/05/06 09:03:06;;;;;;;3.30;0.90;;;21.60;64.80;;;;;;4984550;28;20675;-75
2021/05/06 09:05:35;;;;;;;1.20;0.60;;;22.30;65.30;;;;;;4956255;28;21130;-75
2021/05/06 09:08:02;;;;;;;2.30;0.67;;;22.80;63.60;;;;;;4972706;28;20600;-75
2021/05/06 09:10:37;;;;;;;1.73;0.70;;;22.90;61.50;;;;;;4956019;28;20761;-75
2021/05/06 09:13:23;;;;;;;1.98;0.90;;;23.20;59.20;;;;;;4955210;28;20754;-75
2021/05/06 09:15:49;;;;;;;1.87;0.70;;;23.40;54.40;;;;;;4973435;28;20567;-76
2021/05/06 09:18:36;;;;;;;1.30;0.70;;;24.00;57.90;;;;;;4972904;28;20718;-76
2021/05/06 09:21:04;;;;;;;1.67;0.60;;;24.10;56.60;;;;;;4975156;28;20198;-75
2021/05/06 09:23:30;;;;;;;1.40;0.60;;;23.90;55.80;;;;;;4975223;28;20575;-75
2021/05/06 09:26:04;;;;;;;1.60;0.80;;;23.60;55.10;;;;;;4991936;28;20566;-75
2021/05/06 09:28:31;;;;;;;3.43;0.70;;;23.30;54.50;;;;;;4992176;28;20937;-76
2021/05/06 09:31:07;;;;;;;1.60;0.70;;;23.60;56.10;;;;;;4992581;28;20950;-76
2021/05/06 09:33:36;;;;;;;1.60;0.60;;;23.80;55.70;;;;;;4991874;28;20573;-76
2021/05/06 09:36:14;;;;;;;2.07;0.70;;;24.00;55.60;;;;;;4954449;29;20568;-76
2021/05/06 09:38:51;;;;;;;3.50;1.67;;;24.50;56.10;;;;;;4936737;28;20839;-76
2021/05/06 09:41:24;;;;;;;3.47;1.63;;;25.20;57.30;;;;;;4954098;29;20635;-76
2021/05/06 09:43:51;;;;;;;1.80;0.73;;;26.10;57.20;;;;;;4937705;29;20631;-77
2021/05/06 09:46:23;;;;;;;2.07;0.80;;;26.80;57.30;;;;;;4922004;29;21174;-77
2021/05/06 09:49:03;;;;;;;1.57;0.70;;;27.60;55.50;;;;;;4920994;28;20639;-77
2021/05/06 09:51:30;;;;;;;1.50;0.70;;;28.40;55.20;;;;;;4973710;28;20590;-78
2021/05/06 09:53:56;;;;;;;2.20;1.50;;;29.20;54.50;;;;;;4975571;28;21020;-78
2021/05/06 09:56:25;;;;;;;2.20;0.90;;;29.80;53.70;;;;;;4975764;28;21109;-77
2021/05/06 09:58:53;;;;;;;4.13;2.47;;;30.30;50.20;;;;;;4992472;28;20621;-76
2021/05/06 10:01:19;;;;;;;1.50;1.00;;;30.60;48.60;;;;;;4975242;28;20621;-77
2021/05/06 10:03:44;;;;;;;1.40;0.70;;;30.90;48.30;;;;;;4992240;28;21110;-77
2021/05/06 10:06:20;;;;;;;1.40;0.70;;;31.10;46.70;;;;;;4992279;28;20167;-77
2021/05/06 10:08:48;;;;;;;1.30;0.70;;;30.70;43.70;;;;;;4992193;28;20182;-78
2021/05/06 10:11:16;;;;;;;1.47;0.70;;;30.00;43.10;;;;;;4994867;28;21188;-77
2021/05/06 10:13:44;;;;;;;1.37;0.70;;;29.30;42.10;;;;;;4959564;28;20578;-76
2021/05/06 10:16:12;;;;;;;2.27;0.70;;;29.00;43.00;;;;;;4958421;28;20609;-77
2021/05/06 10:18:40;;;;;;;1.50;0.70;;;28.90;43.30;;;;;;4991242;28;20725;-76
2021/05/06 10:21:11;;;;;;;1.50;0.70;;;28.20;38.70;;;;;;4974150;28;20574;-76
2021/05/06 10:23:38;;;;;;;2.00;0.67;;;28.20;40.50;;;;;;4991898;28;20565;-76
2021/05/06 10:26:04;;;;;;;1.70;0.50;;;28.10;41.70;;;;;;4991560;28;20617;-77
2021/05/06 10:28:33;;;;;;;1.47;0.60;;;28.30;42.70;;;;;;4991667;28;20650;-77
2021/05/06 10:31:02;;;;;;;2.77;0.60;;;28.60;42.80;;;;;;4991668;28;20617;-77
2021/05/06 10:33:29;;;;;;;1.60;0.73;;;29.00;42.60;;;;;;4975161;28;20575;-77
2021/05/06 10:35:57;;;;;;;1.67;0.60;;;28.90;41.60;;;;;;4971560;28;21147;-76
2021/05/06 10:38:23;;;;;;;1.60;0.70;;;28.70;40.90;;;;;;4975792;28;20622;-76
2021/05/06 10:40:50;;;;;;;1.30;0.60;;;28.60;41.10;;;;;;4976084;28;21168;-76
2021/05/06 10:43:26;;;;;;;1.60;0.80;;;28.50;41.20;;;;;;4942901;28;20172;-75
2021/05/06 10:46:02;;;;;;;1.93;0.80;;;28.20;40.00;;;;;;4958595;28;20570;-75
2021/05/06 10:49:02;;;;;;;1.90;0.77;;;27.80;39.80;;;;;;4975902;28;20606;-76
2021/05/06 10:51:49;;;;;;;3.50;0.70;;;27.50;40.10;;;;;;4985889;28;20919;-75
2021/05/06 10:54:34;;;;;;;1.47;0.60;;;27.20;40.20;;;;;;4995727;28;20566;-76
2021/05/06 10:57:24;;;;;;;1.83;0.60;;;27.00;40.20;;;;;;4977808;28;20574;-77
2021/05/06 10:59:51;;;;;;;1.33;0.60;;;26.80;40.50;;;;;;4995241;28;20629;-77
2021/05/06 11:02:44;;;;;;;1.53;0.60;;;26.80;40.80;;;;;;4995186;28;20582;-76
2021/05/06 11:05:10;;;;;;;2.37;0.80;;;26.50;39.70;;;;;;4995500;28;20928;-76
2021/05/06 11:07:36;;;;;;;1.80;0.70;;;26.20;40.00;;;;;;4977137;28;20598;-76
2021/05/06 11:10:04;;;;;;;1.60;0.73;;;25.80;39.40;;;;;;4995194;28;20634;-76
2021/05/06 11:12:38;;;;;;;1.20;0.50;;;25.30;39.60;;;;;;4994941;28;20570;-76
2021/05/06 11:15:05;;;;;;;1.20;0.60;;;24.90;39.00;;;;;;4962115;28;20992;-74
2021/05/06 11:17:37;;;;;;;1.87;1.07;;;24.30;38.80;;;;;;4974762;28;20626;-74
2021/05/06 11:20:29;;;;;;;3.47;2.30;;;23.70;38.50;;;;;;4975126;28;20653;-74
2021/05/06 11:22:58;;;;;;;4.33;2.03;;;23.10;38.60;;;;;;4958010;28;21282;-75
2021/05/06 11:25:30;;;;;;;3.20;1.27;;;22.50;38.70;;;;;;4975619;28;20575;-74
2021/05/06 11:27:58;;;;;;;2.40;1.40;;;22.10;38.70;;;;;;4974683;28;20677;-73
2021/05/06 11:30:34;;;;;;;2.90;0.90;;;21.70;39.00;;;;;;4975255;28;20646;-74
2021/05/06 11:33:21;;;;;;;3.73;1.00;;;21.40;39.20;;;;;;4957925;28;20953;-74
2021/05/06 11:36:07;;;;;;;2.93;0.83;;;21.10;39.50;;;;;;4957956;28;20575;-74
2021/05/06 11:38:39;;;;;;;1.50;0.60;;;21.00;39.80;;;;;;4957489;28;21025;-74
2021/05/06 11:41:16;;;;;;;1.67;0.80;;;20.90;40.00;;;;;;4957813;28;20571;-74
2021/05/06 11:43:50;;;;;;;1.20;0.63;;;20.70;39.80;;;;;;4975113;28;20590;-73
2021/05/06 11:46:25;;;;;;;2.40;1.20;;;20.60;40.10;;;;;;4981119;28;20582;-74
2021/05/06 11:48:55;;;;;;;2.10;0.90;;;20.60;40.20;;;;;;4988339;28;20625;-74
2021/05/06 11:51:42;;;;;;;2.30;0.77;;;20.50;40.30;;;;;;4964917;28;20678;-74
2021/05/06 11:54:10;;;;;;;2.73;1.20;;;20.40;40.40;;;;;;4988902;28;20590;-75
2021/05/06 11:56:49;;;;;;;1.90;0.83;;;20.50;40.70;;;;;;4968378;28;20604;-76
2021/05/06 11:59:16;;;;;;;3.90;0.90;;;20.50;40.50;;;;;;4972532;28;20649;-75
2021/05/06 12:01:42;;;;;;;2.00;1.10;;;20.50;41.10;;;;;;4953349;28;20954;-75
2021/05/06 12:04:32;;;;;;;1.87;0.87;;;20.50;41.10;;;;;;4973507;28;20701;-74
2021/05/06 12:06:58;;;;;;;2.40;0.70;;;20.50;40.80;;;;;;4966699;28;20641;-74
2021/05/06 12:09:29;;;;;;;1.43;1.13;;;20.50;41.00;;;;;;4972752;28;20625;-74
2021/05/06 12:11:55;;;;;;;1.97;0.70;;;20.50;40.80;;;;;;4982780;28;20591;-74
2021/05/06 12:14:32;;;;;;;1.20;0.60;;;20.50;40.90;;;;;;4965229;28;20636;-74
2021/05/06 12:16:58;;;;;;;1.10;0.50;;;20.50;40.60;;;;;;4955243;28;20609;-74
2021/05/06 12:19:24;;;;;;;1.10;0.60;;;20.60;41.00;;;;;;4971200;28;20645;-75
2021/05/06 12:21:56;;;;;;;1.50;0.70;;;20.70;41.10;;;;;;4964244;28;20171;-73
2021/05/06 12:24:55;;;;;;;1.30;0.60;;;20.80;40.90;;;;;;4990648;28;21126;-74
2021/05/06 12:27:28;;;;;;;2.23;0.70;;;20.80;40.80;;;;;;4924319;28;21230;-74
2021/05/06 12:30:00;;;;;;;2.37;0.87;;;20.90;40.80;;;;;;4953781;28;20745;-74
2021/05/06 12:32:29;;;;;;;1.30;0.60;;;20.90;40.70;;;;;;4985360;28;21021;-74
2021/05/06 12:34:55;;;;;;;2.93;0.70;;;20.90;41.20;;;;;;4987284;28;20617;-74
2021/05/06 12:37:26;;;;;;;4.33;1.10;;;20.90;40.60;;;;;;4983891;28;20963;-74
2021/05/06 12:39:52;;;;;;;3.57;1.37;;;20.90;40.60;;;;;;4993142;28;21233;-74
2021/05/06 12:42:32;;;;;;;2.23;0.80;;;20.90;40.90;;;;;;4967374;28;20591;-73
2021/05/06 12:44:59;;;;;;;1.67;0.70;;;20.90;40.50;;;;;;4951359;28;20615;-74
2021/05/06 12:47:33;;;;;;;2.70;0.80;;;20.90;40.10;;;;;;4968187;28;20590;-74
2021/05/06 12:50:16;;;;;;;1.83;0.60;;;20.80;40.40;;;;;;4971643;28;20642;-74
2021/05/06 12:52:42;;;;;;;1.77;0.77;;;20.70;40.20;;;;;;4974238;28;20976;-75
2021/05/06 12:55:17;;;;;;;1.20;0.60;;;20.60;40.20;;;;;;4988097;28;20602;-75
2021/05/06 12:57:44;;;;;;;1.23;0.60;;;20.60;40.20;;;;;;4985495;28;20632;-75
2021/05/06 13:00:18;;;;;;;2.43;0.70;;;20.60;40.40;;;;;;4986806;28;20607;-75
2021/05/06 13:02:44;;;;;;;1.40;0.60;;;20.60;41.00;;;;;;4963423;28;20579;-74
2021/05/06 13:05:13;;;;;;;3.57;1.73;;;20.70;40.80;;;;;;4973323;28;20622;-74
2021/05/06 13:07:52;;;;;;;1.30;0.70;;;20.70;40.90;;;;;;4973226;28;20567;-75
2021/05/06 13:10:42;;;;;;;4.37;0.70;;;20.60;40.90;;;;;;4956385;28;20638;-73
2021/05/06 13:13:09;;;;;;;1.80;0.73;;;20.60;41.00;;;;;;4955807;28;20590;-73
2021/05/06 13:15:52;;;;;;;1.27;0.70;;;20.50;40.90;;;;;;4974455;28;20722;-73
2021/05/06 13:18:19;;;;;;;2.00;0.63;;;20.40;40.80;;;;;;4974207;28;20630;-73
2021/05/06 13:20:47;;;;;;;2.23;0.60;;;20.30;40.80;;;;;;4973445;28;20678;-73
2021/05/06 13:23:25;;;;;;;2.47;1.33;;;20.10;40.70;;;;;;4955704;28;21048;-73
2021/05/06 13:25:54;;;;;;;1.83;0.63;;;20.00;40.60;;;;;;4973353;28;20924;-72
2021/05/06 13:28:30;;;;;;;2.77;0.70;;;19.80;40.60;;;;;;4972745;28;20665;-72
2021/05/06 13:31:16;;;;;;;2.13;0.70;;;19.60;40.70;;;;;;4955795;28;21344;-72
2021/05/06 13:33:43;;;;;;;2.70;0.70;;;19.40;40.60;;;;;;4972355;28;20631;-73
2021/05/06 13:36:11;;;;;;;2.70;0.93;;;19.20;40.70;;;;;;4939678;28;20606;-72
2021/05/06 13:38:51;;;;;;;1.60;0.70;;;19.00;40.70;;;;;;4972293;28;20765;-73
2021/05/06 13:41:19;;;;;;;2.07;0.90;;;18.80;40.80;;;;;;4972272;28;20892;-74
2021/05/06 13:43:45;;;;;;;2.33;0.70;;;18.60;40.80;;;;;;4972645;28;20730;-73
2021/05/06 13:46:11;;;;;;;1.50;0.80;;;18.50;40.90;;;;;;4972859;28;20654;-73
2021/05/06 13:48:37;;;;;;;2.03;0.70;;;18.30;40.80;;;;;;4972249;28;20279;-72
2021/05/06 13:51:11;;;;;;;4.90;0.80;;;18.20;41.10;;;;;;4962010;28;20621;-73
2021/05/06 13:53:41;;;;;;;2.10;1.30;;;18.00;41.20;;;;;;4992542;28;20579;-73
2021/05/06 13:56:07;;;;;;;3.10;0.70;;;17.80;41.10;;;;;;4974823;28;20958;-73
2021/05/06 13:58:34;;;;;;;3.00;0.90;;;17.70;41.40;;;;;;4991658;28;20618;-73
2021/05/06 14:01:00;;;;;;;1.70;0.90;;;17.40;42.10;;;;;;4974879;28;20749;-73
2021/05/06 14:03:27;;;;;;;2.80;0.83;;;16.90;42.10;;;;;;4992193;28;21102;-73
2021/05/06 14:05:53;;;;;;;1.37;0.70;;;16.60;42.10;;;;;;4987941;28;20594;-72
2021/05/06 14:08:19;;;;;;;2.80;0.70;;;16.30;42.60;;;;;;4938901;28;21105;-73
2021/05/06 14:10:46;;;;;;;3.20;0.80;;;16.10;42.60;;;;;;4955109;28;20595;-73
2021/05/06 14:13:15;;;;;;;2.13;0.73;;;15.80;43.50;;;;;;4972256;28;20762;-73
2021/05/06 14:15:41;;;;;;;2.97;0.70;;;15.70;43.20;;;;;;4972056;28;20567;-73
2021/05/06 14:18:06;;;;;;;3.67;1.00;;;15.50;43.20;;;;;;4972093;28;21221;-73
2021/05/06 14:20:32;;;;;;;1.20;0.60;;;15.50;43.60;;;;;;4954683;28;20664;-73
2021/05/06 14:22:58;;;;;;;1.30;0.60;;;15.60;44.00;;;;;;4954706;28;20708;-73
2021/05/06 14:25:24;;;;;;;1.57;0.70;;;15.70;44.10;;;;;;4972251;28;20168;-73
2021/05/06 14:27:50;;;;;;;1.20;0.67;;;15.80;44.50;;;;;;4971960;28;20635;-73
2021/05/06 14:30:16;;;;;;;1.33;0.80;;;15.90;44.90;;;;;;4975986;28;20246;-73
2021/05/06 14:32:42;;;;;;;1.40;0.60;;;15.90;44.80;;;;;;4938934;28;20941;-73
2021/05/06 14:35:08;;;;;;;1.40;0.80;;;16.00;45.20;;;;;;4972169;28;20567;-73
2021/05/06 14:37:34;;;;;;;1.73;0.70;;;16.00;45.30;;;;;;4971767;28;20683;-74
2021/05/06 14:40:00;;;;;;;1.63;0.70;;;16.10;45.60;;;;;;4971803;28;20726;-73
2021/05/06 14:42:26;;;;;;;1.97;0.80;;;16.10;45.70;;;;;;4972288;28;20171;-73
2021/05/06 14:44:52;;;;;;;2.80;1.77;;;16.10;45.70;;;;;;4954827;28;20579;-74
2021/05/06 14:47:18;;;;;;;5.37;3.97;;;16.10;45.70;;;;;;4954634;28;20175;-73
2021/05/06 14:49:44;;;;;;;6.90;3.40;;;16.10;45.80;;;;;;4971988;28;20614;-73
2021/05/06 14:52:10;;;;;;;2.67;1.80;;;16.20;46.00;;;;;;4987634;28;20598;-74
2021/05/06 14:54:35;;;;;;;2.17;1.30;;;16.10;45.80;;;;;;4974290;28;20329;-74
2021/05/06 14:57:02;;;;;;;2.27;1.00;;;16.20;46.00;;;;;;4973229;28;20197;-74
2021/05/06 14:59:28;;;;;;;3.37;1.00;;;16.20;46.10;;;;;;4991245;28;20203;-75
2021/05/06 15:01:54;;;;;;;6.30;0.90;;;16.20;46.40;;;;;;4974005;28;20939;-74
2021/05/06 15:04:19;;;;;;;2.80;1.00;;;16.20;46.50;;;;;;4991628;28;20172;-74
2021/05/06 15:06:45;;;;;;;2.03;0.93;;;16.20;46.80;;;;;;4986354;28;20172;-74
2021/05/06 15:09:11;;;;;;;2.70;0.80;;;16.20;46.80;;;;;;4975262;28;20192;-74
2021/05/06 15:11:37;;;;;;;2.80;0.90;;;16.20;46.70;;;;;;4954622;28;20311;-74
2021/05/06 15:14:03;;;;;;;2.43;0.83;;;16.00;46.60;;;;;;4954734;28;20741;-74
2021/05/06 15:16:28;;;;;;;2.80;0.90;;;15.90;46.90;;;;;;4954127;28;20180;-75
2021/05/06 15:18:54;;;;;;;1.50;1.10;;;15.80;47.10;;;;;;4954084;28;20203;-73
2021/05/06 15:21:20;;;;;;;2.78;1.30;;;15.70;47.20;;;;;;4970856;28;20700;-75
2021/05/06 15:23:45;;;;;;;2.57;0.80;;;15.30;51.40;;;;;;4955524;28;20250;-74
2021/05/06 15:26:11;;;;;;;5.10;1.10;;;15.30;49.50;;;;;;4973954;28;20786;-74
2021/05/06 15:28:37;;;;;;;2.27;0.80;;;15.30;49.40;;;;;;4956544;28;20184;-74
2021/05/06 15:31:04;;;;;;;2.57;1.00;;;15.20;49.20;;;;;;4972989;28;20614;-75
2021/05/06 15:33:29;;;;;;;1.20;0.70;;;15.10;49.20;;;;;;4974335;28;20191;-75
2021/05/06 15:35:55;;;;;;;2.80;0.83;;;15.10;49.20;;;;;;4974658;28;20179;-75
2021/05/06 15:38:21;;;;;;;1.60;0.80;;;15.00;49.20;;;;;;4974451;28;20625;-75
2021/05/06 15:40:51;;;;;;;2.77;1.33;;;14.90;49.50;;;;;;4955854;28;20255;-75
2021/05/06 15:43:18;;;;;;;3.70;2.20;;;14.90;50.10;;;;;;4974223;28;20167;-75
2021/05/06 15:45:44;;;;;;;2.30;1.20;;;14.80;50.70;;;;;;4979287;28;20202;-75
2021/05/06 15:48:14;;;;;;;3.83;1.40;;;14.80;50.10;;;;;;4975015;28;20527;-74
2021/05/06 15:50:41;;;;;;;5.32;1.60;;;14.70;50.30;;;;;;4965419;28;20199;-75
2021/05/06 15:53:07;;;;;;;4.47;1.70;;;14.60;50.50;;;;;;4981195;28;20215;-75
2021/05/06 15:55:34;;;;;;;4.80;1.00;;;14.60;50.40;;;;;;4957079;28;20250;-74
2021/05/06 15:58:04;;;;;;;2.55;1.27;;;14.50;50.50;;;;;;4955128;28;21523;-75
2021/05/06 16:00:31;;;;;;;2.90;1.13;;;14.40;51.10;;;;;;4956630;28;20200;-76
2021/05/06 16:03:18;;;;;;;1.40;0.90;;;14.30;51.20;;;;;;4956767;28;20250;-75
2021/05/06 16:05:49;;;;;;;2.38;1.27;;;14.20;51.40;;;;;;4956501;28;20552;-75
2021/05/06 16:08:15;;;;;;;2.63;1.20;;;14.00;51.70;;;;;;4973599;28;20253;-75
2021/05/06 16:10:41;;;;;;;1.63;0.90;;;13.90;52.40;;;;;;4955441;28;20247;-75
2021/05/06 16:13:07;;;;;;;1.60;1.10;;;13.70;52.30;;;;;;4973598;28;20575;-75
2021/05/06 16:15:32;;;;;;;2.87;1.10;;;13.60;52.90;;;;;;4974389;28;20779;-75
2021/05/06 16:17:58;;;;;;;1.93;1.07;;;13.50;53.00;;;;;;4956002;28;20206;-75
2021/05/06 16:20:40;;;;;;;4.37;1.20;;;13.30;53.10;;;;;;4956651;28;20200;-75
2021/05/06 16:23:10;;;;;;;2.65;1.00;;;13.20;53.40;;;;;;4960229;28;20610;-76
2021/05/06 16:25:40;;;;;;;2.35;0.95;;;13.10;53.90;;;;;;4974078;28;20556;-76